sensor_id;sensor_type;location;lat;lon;timestamp;pressure;altitude;pressure_sealevel;temperature;humidity
44531;BME280;30240;47.418;0.700;2023-02-28T00:00:14;101252.00805664062;;;0.98;71.32
44531;BME280;30240;47.418;0.700;2023-02-28T00:02:40;101254.01611328125;;;0.94;71.52
44531;BME280;30240;47.418;0.700;2023-02-28T00:05:04;101257.17163085938;;;0.93;71.58
44531;BME280;30240;47.418;0.700;2023-02-28T00:07:29;101262.7685546875;;;0.93;71.58
44531;BME280;30240;47.418;0.700;2023-02-28T00:09:53;101267.529296875;;;0.97;71.58
44531;BME280;30240;47.418;0.700;2023-02-28T00:12:19;101267.529296875;;;0.97;71.58
44531;BME280;30240;47.418;0.700;2023-02-28T00:14:43;101268.49975585938;;;0.91;71.56
44531;BME280;30240;47.418;0.700;2023-02-28T00:17:08;101272.607421875;;;0.97;71.61
44531;BME280;30240;47.418;0.700;2023-02-28T00:19:34;101265.81420898438;;;0.87;71.75
44531;BME280;30240;47.418;0.700;2023-02-28T00:21:59;101268.60961914062;;;0.83;71.84
44531;BME280;30240;47.418;0.700;2023-02-28T00:24:23;101268.60961914062;;;0.83;71.84
44531;BME280;30240;47.418;0.700;2023-02-28T00:26:48;101270.9228515625;;;0.87;71.76
44531;BME280;30240;47.418;0.700;2023-02-28T00:29:14;101278.22875976562;;;0.9;71.82
44531;BME280;30240;47.418;0.700;2023-02-28T00:31:39;101273.98681640625;;;0.86;71.83
44531;BME280;30240;47.418;0.700;2023-02-28T00:34:03;101271.8994140625;;;0.86;71.83
44531;BME280;30240;47.418;0.700;2023-02-28T00:36:29;101271.8994140625;;;0.86;71.83
44531;BME280;30240;47.418;0.700;2023-02-28T00:38:54;101271.68579101562;;;0.86;71.71
44531;BME280;30240;47.418;0.700;2023-02-28T00:41:18;101274.71923828125;;;0.8;72.02
44531;BME280;30240;47.418;0.700;2023-02-28T00:43:43;101271.45385742188;;;0.75;72.13
44531;BME280;30240;47.418;0.700;2023-02-28T00:46:09;101275.29907226562;;;0.79;72.33
44531;BME280;30240;47.418;0.700;2023-02-28T00:48:34;101275.29907226562;;;0.79;72.33
44531;BME280;30240;47.418;0.700;2023-02-28T00:50:59;101275.62255859375;;;0.76;72.31
44531;BME280;30240;47.418;0.700;2023-02-28T00:53:23;101283.3251953125;;;0.77;72.31
44531;BME280;30240;47.418;0.700;2023-02-28T00:55:49;101283.28247070312;;;0.75;72.53
44531;BME280;30240;47.418;0.700;2023-02-28T00:58:13;101287.9150390625;;;0.65;72.88
44531;BME280;30240;47.418;0.700;2023-02-28T01:00:38;101287.9150390625;;;0.65;72.88
44531;BME280;30240;47.418;0.700;2023-02-28T01:03:04;101291.82739257812;;;0.65;73.04
44531;BME280;30240;47.418;0.700;2023-02-28T01:05:28;101291.98608398438;;;0.65;72.98
44531;BME280;30240;47.418;0.700;2023-02-28T01:07:54;101287.22534179688;;;0.65;73.1
44531;BME280;30240;47.418;0.700;2023-02-28T01:10:18;101288.47045898438;;;0.58;73.29
44531;BME280;30240;47.418;0.700;2023-02-28T01:12:43;101288.47045898438;;;0.58;73.29
44531;BME280;30240;47.418;0.700;2023-02-28T01:15:10;101285.3759765625;;;0.59;73.43
44531;BME280;30240;47.418;0.700;2023-02-28T01:17:33;101285.13793945312;;;0.54;73.45
44531;BME280;30240;47.418;0.700;2023-02-28T01:19:58;101292.60864257812;;;0.48;73.69
44531;BME280;30240;47.418;0.700;2023-02-28T01:22:23;101287.81127929688;;;0.49;73.76
44531;BME280;30240;47.418;0.700;2023-02-28T01:24:48;101287.81127929688;;;0.49;73.76
44531;BME280;30240;47.418;0.700;2023-02-28T01:27:13;101299.15771484375;;;0.45;73.83
44531;BME280;30240;47.418;0.700;2023-02-28T01:29:39;101300.20141601562;;;0.37;74.03
44531;BME280;30240;47.418;0.700;2023-02-28T01:32:04;101300.03051757812;;;0.36;74.33
44531;BME280;30240;47.418;0.700;2023-02-28T01:34:29;101302.77099609375;;;0.34;74.43
44531;BME280;30240;47.418;0.700;2023-02-28T01:36:53;101303.45458984375;;;0.3;74.59
44531;BME280;30240;47.418;0.700;2023-02-28T01:39:18;101303.45458984375;;;0.3;74.59
44531;BME280;30240;47.418;0.700;2023-02-28T01:41:43;101297.35717773438;;;0.31;74.69
44531;BME280;30240;47.418;0.700;2023-02-28T01:44:57;101313.06762695312;;;0.23;74.85
44531;BME280;30240;47.418;0.700;2023-02-28T01:46:35;101312.68920898438;;;0.24;74.8
44531;BME280;30240;47.418;0.700;2023-02-28T01:49:01;101318.798828125;;;0.18;75.04
44531;BME280;30240;47.418;0.700;2023-02-28T01:51:26;101318.798828125;;;0.18;75.04
44531;BME280;30240;47.418;0.700;2023-02-28T01:53:51;101318.19458007812;;;0.2;75.35
44531;BME280;30240;47.418;0.700;2023-02-28T01:56:16;101319.41528320312;;;0.17;75.16
44531;BME280;30240;47.418;0.700;2023-02-28T01:58:39;101316.29638671875;;;0.07;75.48
44531;BME280;30240;47.418;0.700;2023-02-28T02:01:04;101307.31201171875;;;0.11;75.34
44531;BME280;30240;47.418;0.700;2023-02-28T02:03:29;101307.31201171875;;;0.11;75.34
44531;BME280;30240;47.418;0.700;2023-02-28T02:05:54;101308.29467773438;;;0.06;75.31
44531;BME280;30240;47.418;0.700;2023-02-28T02:08:21;101309.9365234375;;;0.09;75.15
44531;BME280;30240;47.418;0.700;2023-02-28T02:10:45;101313.9404296875;;;0.1;75.08
44531;BME280;30240;47.418;0.700;2023-02-28T02:13:15;101314.20288085938;;;0.07;75.11
44531;BME280;30240;47.418;0.700;2023-02-28T02:15:37;101314.20288085938;;;0.07;75.11
44531;BME280;30240;47.418;0.700;2023-02-28T02:18:03;101310.51635742188;;;0.07;75.16
44531;BME280;30240;47.418;0.700;2023-02-28T02:20:51;101311.70043945312;;;0.09;74.86
44531;BME280;30240;47.418;0.700;2023-02-28T02:21:02;101311.70043945312;;;0.09;74.86
44531;BME280;30240;47.418;0.700;2023-02-28T02:21:11;101311.70043945312;;;0.09;74.86
44531;BME280;30240;47.418;0.700;2023-02-28T02:21:30;101311.70043945312;;;0.09;74.86
44531;BME280;30240;47.418;0.700;2023-02-28T02:22:59;101311.62719726562;;;0.05;75.05
44531;BME280;30240;47.418;0.700;2023-02-28T02:23:17;101311.62719726562;;;0.05;75.05
44531;BME280;30240;47.418;0.700;2023-02-28T02:23:27;101311.62719726562;;;0.05;75.05
44531;BME280;30240;47.418;0.700;2023-02-28T02:23:33;101311.62719726562;;;0.05;75.05
44531;BME280;30240;47.418;0.700;2023-02-28T02:23:43;101311.62719726562;;;0.05;75.05
44531;BME280;30240;47.418;0.700;2023-02-28T02:25:18;101307.95288085938;;;0.07;74.9
44531;BME280;30240;47.418;0.700;2023-02-28T02:27:46;101307.95288085938;;;0.07;74.9
44531;BME280;30240;47.418;0.700;2023-02-28T02:28:01;101307.95288085938;;;0.07;74.9
44531;BME280;30240;47.418;0.700;2023-02-28T02:30:21;101311.65771484375;;;0.05;75.09
44531;BME280;30240;47.418;0.700;2023-02-28T02:30:33;101311.65771484375;;;0.05;75.09
44531;BME280;30240;47.418;0.700;2023-02-28T02:30:43;101311.65771484375;;;0.05;75.09
44531;BME280;30240;47.418;0.700;2023-02-28T02:32:52;101307.72094726562;;;-0.03;75.33
44531;BME280;30240;47.418;0.700;2023-02-28T02:33:01;101307.72094726562;;;-0.03;75.33
44531;BME280;30240;47.418;0.700;2023-02-28T02:34:58;101305.01708984375;;;-0.01;75.25
44531;BME280;30240;47.418;0.700;2023-02-28T02:37:25;101301.81274414062;;;0.03;75.18
44531;BME280;30240;47.418;0.700;2023-02-28T02:39:48;101301.81274414062;;;0.03;75.18
44531;BME280;30240;47.418;0.700;2023-02-28T02:42:14;101301.3916015625;;;0.03;75.07
44531;BME280;30240;47.418;0.700;2023-02-28T02:44:38;101295.4345703125;;;0.05;74.75
44531;BME280;30240;47.418;0.700;2023-02-28T02:47:01;101287.7685546875;;;0.05;74.74
44531;BME280;30240;47.418;0.700;2023-02-28T02:49:26;101296.54541015625;;;0.06;74.6
44531;BME280;30240;47.418;0.700;2023-02-28T02:51:49;101296.54541015625;;;0.06;74.6
44531;BME280;30240;47.418;0.700;2023-02-28T02:54:16;101300.67138671875;;;0.07;74.49
44531;BME280;30240;47.418;0.700;2023-02-28T02:56:39;101305.41381835938;;;0.0;74.74
44531;BME280;30240;47.418;0.700;2023-02-28T02:59:06;101304.35791015625;;;0.02;74.87
44531;BME280;30240;47.418;0.700;2023-02-28T03:01:30;101304.21752929688;;;-0.04;74.98
44531;BME280;30240;47.418;0.700;2023-02-28T03:03:55;101304.21752929688;;;-0.04;74.98
44531;BME280;30240;47.418;0.700;2023-02-28T03:06:19;101301.52587890625;;;-0.08;75.04
44531;BME280;30240;47.418;0.700;2023-02-28T03:08:44;101304.65698242188;;;-0.07;75.15
44531;BME280;30240;47.418;0.700;2023-02-28T03:11:12;101307.31201171875;;;-0.15;75.4
44531;BME280;30240;47.418;0.700;2023-02-28T03:13:42;101307.568359375;;;-0.1;75.45
44531;BME280;30240;47.418;0.700;2023-02-28T03:16:15;101304.6875;;;-0.15;75.55
44531;BME280;30240;47.418;0.700;2023-02-28T03:16:23;101304.6875;;;-0.15;75.55
44531;BME280;30240;47.418;0.700;2023-02-28T03:16:32;101304.6875;;;-0.15;75.55
44531;BME280;30240;47.418;0.700;2023-02-28T03:18:34;101304.6875;;;-0.15;75.55
44531;BME280;30240;47.418;0.700;2023-02-28T03:20:55;101304.9560546875;;;-0.25;75.97
44531;BME280;30240;47.418;0.700;2023-02-28T03:23:16;101304.35180664062;;;-0.25;75.98
44531;BME280;30240;47.418;0.700;2023-02-28T03:25:52;101310.43701171875;;;-0.26;76.16
44531;BME280;30240;47.418;0.700;2023-02-28T03:28:08;101304.248046875;;;-0.28;76.47
44531;BME280;30240;47.418;0.700;2023-02-28T03:30:32;101304.248046875;;;-0.28;76.47
44531;BME280;30240;47.418;0.700;2023-02-28T03:32:57;101295.34301757812;;;-0.33;76.7
44531;BME280;30240;47.418;0.700;2023-02-28T03:35:22;101291.65649414062;;;-0.28;76.39
44531;BME280;30240;47.418;0.700;2023-02-28T03:37:44;101298.27880859375;;;-0.26;76.29
44531;BME280;30240;47.418;0.700;2023-02-28T03:40:10;101296.56982421875;;;-0.28;76.27
44531;BME280;30240;47.418;0.700;2023-02-28T03:42:35;101296.56982421875;;;-0.28;76.27
44531;BME280;30240;47.418;0.700;2023-02-28T03:45:00;101298.1689453125;;;-0.33;76.61
44531;BME280;30240;47.418;0.700;2023-02-28T03:47:27;101304.06494140625;;;-0.42;77.27
44531;BME280;30240;47.418;0.700;2023-02-28T03:49:52;101302.25830078125;;;-0.4;77.51
44531;BME280;30240;47.418;0.700;2023-02-28T03:52:14;101304.38842773438;;;-0.46;77.82
44531;BME280;30240;47.418;0.700;2023-02-28T03:54:41;101304.38842773438;;;-0.46;77.82
44531;BME280;30240;47.418;0.700;2023-02-28T03:57:06;101307.34252929688;;;-0.49;78.03
44531;BME280;30240;47.418;0.700;2023-02-28T03:59:32;101307.26318359375;;;-0.5;78.17
44531;BME280;30240;47.418;0.700;2023-02-28T04:01:54;101308.7890625;;;-0.5;78.3
44531;BME280;30240;47.418;0.700;2023-02-28T04:04:19;101306.0791015625;;;-0.5;78.17
44531;BME280;30240;47.418;0.700;2023-02-28T04:06:44;101306.0791015625;;;-0.5;78.17
44531;BME280;30240;47.418;0.700;2023-02-28T04:09:11;101304.21752929688;;;-0.57;78.48
44531;BME280;30240;47.418;0.700;2023-02-28T04:11:36;101313.36059570312;;;-0.53;78.52
44531;BME280;30240;47.418;0.700;2023-02-28T04:13:58;101310.107421875;;;-0.57;78.76
44531;BME280;30240;47.418;0.700;2023-02-28T04:16:24;101309.0087890625;;;-0.62;78.85
44531;BME280;30240;47.418;0.700;2023-02-28T04:18:49;101309.0087890625;;;-0.62;78.85
44531;BME280;30240;47.418;0.700;2023-02-28T04:21:14;101310.23559570312;;;-0.59;78.77
44531;BME280;30240;47.418;0.700;2023-02-28T04:23:39;101307.44018554688;;;-0.49;78.46
44531;BME280;30240;47.418;0.700;2023-02-28T04:26:04;101311.24877929688;;;-0.5;78.38
44531;BME280;30240;47.418;0.700;2023-02-28T04:28:28;101301.81274414062;;;-0.48;78.1
44531;BME280;30240;47.418;0.700;2023-02-28T04:30:54;101301.81274414062;;;-0.48;78.1
44531;BME280;30240;47.418;0.700;2023-02-28T04:33:19;101307.75146484375;;;-0.53;78.11
44531;BME280;30240;47.418;0.700;2023-02-28T04:35:43;101316.5771484375;;;-0.48;77.83
44531;BME280;30240;47.418;0.700;2023-02-28T04:38:08;101320.263671875;;;-0.48;77.71
44531;BME280;30240;47.418;0.700;2023-02-28T04:40:35;101324.12719726562;;;-0.45;77.65
44531;BME280;30240;47.418;0.700;2023-02-28T04:42:58;101330.95092773438;;;-0.48;77.34
44531;BME280;30240;47.418;0.700;2023-02-28T04:45:24;101330.95092773438;;;-0.48;77.34
44531;BME280;30240;47.418;0.700;2023-02-28T04:47:48;101334.39331054688;;;-0.45;76.9
44531;BME280;30240;47.418;0.700;2023-02-28T04:50:14;101336.68823242188;;;-0.43;76.49
44531;BME280;30240;47.418;0.700;2023-02-28T04:52:38;101334.47875976562;;;-0.39;76.54
44531;BME280;30240;47.418;0.700;2023-02-28T04:55:04;101323.2177734375;;;-0.36;76.0
44531;BME280;30240;47.418;0.700;2023-02-28T04:57:28;101323.2177734375;;;-0.36;76.0
44531;BME280;30240;47.418;0.700;2023-02-28T04:59:54;101331.14013671875;;;-0.35;75.69
44531;BME280;30240;47.418;0.700;2023-02-28T05:02:18;101330.96923828125;;;-0.36;76.04
44531;BME280;30240;47.418;0.700;2023-02-28T05:04:44;101333.36181640625;;;-0.42;76.15
44531;BME280;30240;47.418;0.700;2023-02-28T05:07:08;101335.7177734375;;;-0.42;76.03
44531;BME280;30240;47.418;0.700;2023-02-28T05:09:33;101335.7177734375;;;-0.42;76.03
44531;BME280;30240;47.418;0.700;2023-02-28T05:11:58;101337.46948242188;;;-0.52;76.28
44531;BME280;30240;47.418;0.700;2023-02-28T05:14:24;101341.015625;;;-0.43;76.31
44531;BME280;30240;47.418;0.700;2023-02-28T05:16:49;101340.81420898438;;;-0.5;75.99
44531;BME280;30240;47.418;0.700;2023-02-28T05:19:13;101343.07250976562;;;-0.62;76.25
44531;BME280;30240;47.418;0.700;2023-02-28T05:21:40;101343.07250976562;;;-0.62;76.25
44531;BME280;30240;47.418;0.700;2023-02-28T05:24:06;101352.42309570312;;;-0.63;76.37
44531;BME280;30240;47.418;0.700;2023-02-28T05:26:29;101351.708984375;;;-0.66;76.69
44531;BME280;30240;47.418;0.700;2023-02-28T05:28:54;101350.64086914062;;;-0.73;77.08
44531;BME280;30240;47.418;0.700;2023-02-28T05:31:18;101353.62548828125;;;-0.78;77.46
44531;BME280;30240;47.418;0.700;2023-02-28T05:33:44;101353.62548828125;;;-0.78;77.46
44531;BME280;30240;47.418;0.700;2023-02-28T05:36:09;101355.10864257812;;;-0.83;77.73
44531;BME280;30240;47.418;0.700;2023-02-28T05:38:34;101350.5615234375;;;-0.87;78.03
44531;BME280;30240;47.418;0.700;2023-02-28T05:40:58;101351.19018554688;;;-0.91;78.34
44531;BME280;30240;47.418;0.700;2023-02-28T05:43:24;101352.83813476562;;;-0.98;78.6
44531;BME280;30240;47.418;0.700;2023-02-28T05:45:49;101352.83813476562;;;-0.98;78.6
44531;BME280;30240;47.418;0.700;2023-02-28T05:48:14;101351.56860351562;;;-0.98;78.92
44531;BME280;30240;47.418;0.700;2023-02-28T05:50:39;101356.21337890625;;;-1.05;78.79
44531;BME280;30240;47.418;0.700;2023-02-28T05:53:04;101354.49829101562;;;-1.04;78.89
44531;BME280;30240;47.418;0.700;2023-02-28T05:55:29;101359.521484375;;;-1.09;78.92
44531;BME280;30240;47.418;0.700;2023-02-28T05:57:54;101359.521484375;;;-1.09;78.92
44531;BME280;30240;47.418;0.700;2023-02-28T06:00:19;101369.49462890625;;;-1.06;78.76
44531;BME280;30240;47.418;0.700;2023-02-28T06:02:44;101377.62451171875;;;-1.01;78.86
44531;BME280;30240;47.418;0.700;2023-02-28T06:05:14;101371.29516601562;;;-1.06;79.04
44531;BME280;30240;47.418;0.700;2023-02-28T06:07:34;101376.20239257812;;;-1.15;79.35
44531;BME280;30240;47.418;0.700;2023-02-28T06:09:59;101376.20239257812;;;-1.15;79.35
44531;BME280;30240;47.418;0.700;2023-02-28T06:12:24;101376.92260742188;;;-1.15;79.65
44531;BME280;30240;47.418;0.700;2023-02-28T06:14:49;101380.6396484375;;;-1.26;79.94
44531;BME280;30240;47.418;0.700;2023-02-28T06:17:14;101380.908203125;;;-1.32;80.42
44531;BME280;30240;47.418;0.700;2023-02-28T06:19:39;101383.14819335938;;;-1.32;80.7
44531;BME280;30240;47.418;0.700;2023-02-28T06:22:04;101386.376953125;;;-1.32;80.76
44531;BME280;30240;47.418;0.700;2023-02-28T06:24:29;101386.376953125;;;-1.32;80.76
44531;BME280;30240;47.418;0.700;2023-02-28T06:26:54;101385.51025390625;;;-1.3;81.02
44531;BME280;30240;47.418;0.700;2023-02-28T06:29:19;101383.62426757812;;;-1.39;81.32
44531;BME280;30240;47.418;0.700;2023-02-28T06:31:44;101391.81518554688;;;-1.37;81.34
44531;BME280;30240;47.418;0.700;2023-02-28T06:34:09;101399.10888671875;;;-1.36;81.51
44531;BME280;30240;47.418;0.700;2023-02-28T06:36:33;101399.10888671875;;;-1.36;81.51
44531;BME280;30240;47.418;0.700;2023-02-28T06:38:59;101406.92138671875;;;-1.35;81.56
44531;BME280;30240;47.418;0.700;2023-02-28T06:41:25;101415.0634765625;;;-1.33;81.57
44531;BME280;30240;47.418;0.700;2023-02-28T06:43:49;101413.02490234375;;;-1.29;81.55
44531;BME280;30240;47.418;0.700;2023-02-28T06:46:14;101419.04907226562;;;-1.29;81.65
44531;BME280;30240;47.418;0.700;2023-02-28T06:48:39;101419.04907226562;;;-1.29;81.65
44531;BME280;30240;47.418;0.700;2023-02-28T06:51:05;101420.08666992188;;;-1.33;81.8
44531;BME280;30240;47.418;0.700;2023-02-28T06:53:29;101419.58618164062;;;-1.26;81.77
44531;BME280;30240;47.418;0.700;2023-02-28T06:55:54;101421.18530273438;;;-1.26;81.9
44531;BME280;30240;47.418;0.700;2023-02-28T06:58:19;101423.9990234375;;;-1.19;81.71
44531;BME280;30240;47.418;0.700;2023-02-28T07:00:44;101423.9990234375;;;-1.19;81.71
44531;BME280;30240;47.418;0.700;2023-02-28T07:03:09;101431.34155273438;;;-1.16;81.71
44531;BME280;30240;47.418;0.700;2023-02-28T07:05:34;101428.98559570312;;;-1.12;81.66
44531;BME280;30240;47.418;0.700;2023-02-28T07:07:59;101428.70483398438;;;-0.94;81.19
44531;BME280;30240;47.418;0.700;2023-02-28T07:10:24;101434.31396484375;;;-0.63;79.66
44531;BME280;30240;47.418;0.700;2023-02-28T07:12:49;101434.31396484375;;;-0.63;79.66
44531;BME280;30240;47.418;0.700;2023-02-28T07:15:14;101432.9833984375;;;-0.19;78.64
44531;BME280;30240;47.418;0.700;2023-02-28T07:17:39;101430.18798828125;;;-0.08;78.04
44531;BME280;30240;47.418;0.700;2023-02-28T07:20:04;101430.29174804688;;;0.21;77.56
44531;BME280;30240;47.418;0.700;2023-02-28T07:22:29;101423.79760742188;;;0.1;76.17
44531;BME280;30240;47.418;0.700;2023-02-28T07:24:54;101423.79760742188;;;0.1;76.17
44531;BME280;30240;47.418;0.700;2023-02-28T07:27:18;101436.02294921875;;;0.34;76.22
44531;BME280;30240;47.418;0.700;2023-02-28T07:29:44;101430.16967773438;;;0.31;76.0
44531;BME280;30240;47.418;0.700;2023-02-28T07:32:08;101433.50219726562;;;0.73;75.31
44531;BME280;30240;47.418;0.700;2023-02-28T07:34:34;101432.0068359375;;;0.8;74.37
44531;BME280;30240;47.418;0.700;2023-02-28T07:36:59;101432.0068359375;;;0.8;74.37
44531;BME280;30240;47.418;0.700;2023-02-28T07:39:24;101425.4638671875;;;1.39;73.22
44531;BME280;30240;47.418;0.700;2023-02-28T07:41:49;101423.18115234375;;;1.36;72.7
44531;BME280;30240;47.418;0.700;2023-02-28T07:44:14;101417.85888671875;;;1.28;73.22
44531;BME280;30240;47.418;0.700;2023-02-28T07:46:39;101425.17700195312;;;1.31;73.55
44531;BME280;30240;47.418;0.700;2023-02-28T07:49:04;101424.74975585938;;;1.59;71.9
44531;BME280;30240;47.418;0.700;2023-02-28T07:51:29;101424.74975585938;;;1.59;71.9
44531;BME280;30240;47.418;0.700;2023-02-28T07:53:54;101421.29516601562;;;1.52;71.37
44531;BME280;30240;47.418;0.700;2023-02-28T07:56:19;101416.9677734375;;;1.94;70.0
44531;BME280;30240;47.418;0.700;2023-02-28T07:58:44;101423.38256835938;;;1.73;71.09
44531;BME280;30240;47.418;0.700;2023-02-28T08:01:10;101417.7001953125;;;1.77;70.19
44531;BME280;30240;47.418;0.700;2023-02-28T08:03:34;101417.7001953125;;;1.77;70.19
44531;BME280;30240;47.418;0.700;2023-02-28T08:05:59;101422.79663085938;;;2.23;69.71
44531;BME280;30240;47.418;0.700;2023-02-28T08:08:24;101419.41528320312;;;2.34;68.05
44531;BME280;30240;47.418;0.700;2023-02-28T08:10:48;101419.25048828125;;;2.26;67.81
44531;BME280;30240;47.418;0.700;2023-02-28T08:13:14;101425.9033203125;;;2.62;66.64
44531;BME280;30240;47.418;0.700;2023-02-28T08:15:40;101425.9033203125;;;2.62;66.64
44531;BME280;30240;47.418;0.700;2023-02-28T08:18:04;101423.35815429688;;;2.37;66.56
44531;BME280;30240;47.418;0.700;2023-02-28T08:20:29;101423.974609375;;;2.6;66.28
44531;BME280;30240;47.418;0.700;2023-02-28T08:22:54;101412.09106445312;;;2.44;65.88
44531;BME280;30240;47.418;0.700;2023-02-28T08:25:19;101414.78271484375;;;3.09;64.41
44531;BME280;30240;47.418;0.700;2023-02-28T08:27:44;101414.78271484375;;;3.09;64.41
44531;BME280;30240;47.418;0.700;2023-02-28T08:30:10;101416.41235351562;;;3.15;63.88
44531;BME280;30240;47.418;0.700;2023-02-28T08:32:34;101410.46752929688;;;3.06;63.39
44531;BME280;30240;47.418;0.700;2023-02-28T08:34:59;101411.79809570312;;;3.23;62.6
44531;BME280;30240;47.418;0.700;2023-02-28T08:37:24;101414.453125;;;3.37;62.67
44531;BME280;30240;47.418;0.700;2023-02-28T08:39:49;101414.453125;;;3.37;62.67
44531;BME280;30240;47.418;0.700;2023-02-28T08:42:14;101408.06274414062;;;3.22;61.97
44531;BME280;30240;47.418;0.700;2023-02-28T08:44:38;101408.89892578125;;;3.78;60.77
44531;BME280;30240;47.418;0.700;2023-02-28T08:47:04;101410.06469726562;;;3.24;61.97
44531;BME280;30240;47.418;0.700;2023-02-28T08:49:29;101412.39013671875;;;3.83;60.53
44531;BME280;30240;47.418;0.700;2023-02-28T08:51:54;101412.39013671875;;;3.83;60.53
44531;BME280;30240;47.418;0.700;2023-02-28T08:54:19;101410.8642578125;;;4.2;59.47
44531;BME280;30240;47.418;0.700;2023-02-28T08:56:44;101409.1552734375;;;4.35;58.19
44531;BME280;30240;47.418;0.700;2023-02-28T08:59:09;101411.669921875;;;4.72;57.78
44531;BME280;30240;47.418;0.700;2023-02-28T09:01:33;101399.06005859375;;;3.75;59.92
44531;BME280;30240;47.418;0.700;2023-02-28T09:03:59;101399.06005859375;;;3.75;59.92
44531;BME280;30240;47.418;0.700;2023-02-28T09:06:25;101405.2978515625;;;4.18;58.39
44531;BME280;30240;47.418;0.700;2023-02-28T09:08:49;101401.97143554688;;;4.55;57.74
44531;BME280;30240;47.418;0.700;2023-02-28T09:11:14;101404.96826171875;;;4.42;58.07
44531;BME280;30240;47.418;0.700;2023-02-28T09:13:39;101414.61181640625;;;4.34;58.45
44531;BME280;30240;47.418;0.700;2023-02-28T09:16:06;101414.61181640625;;;4.34;58.45
44531;BME280;30240;47.418;0.700;2023-02-28T09:18:29;101405.69458007812;;;4.87;56.6
44531;BME280;30240;47.418;0.700;2023-02-28T09:20:54;101410.15014648438;;;5.21;56.28
44531;BME280;30240;47.418;0.700;2023-02-28T09:23:19;101406.4208984375;;;4.49;57.3
44531;BME280;30240;47.418;0.700;2023-02-28T09:25:46;101406.95190429688;;;4.6;56.91
44531;BME280;30240;47.418;0.700;2023-02-28T09:28:09;101412.32299804688;;;5.05;55.72
44531;BME280;30240;47.418;0.700;2023-02-28T09:30:34;101412.32299804688;;;5.05;55.72
44531;BME280;30240;47.418;0.700;2023-02-28T09:32:59;101409.5458984375;;;4.98;55.54
44531;BME280;30240;47.418;0.700;2023-02-28T09:35:24;101406.84204101562;;;5.28;54.71
44531;BME280;30240;47.418;0.700;2023-02-28T09:37:49;101405.67016601562;;;5.17;55.19
44531;BME280;30240;47.418;0.700;2023-02-28T09:40:14;101408.0810546875;;;4.98;54.58
44531;BME280;30240;47.418;0.700;2023-02-28T09:42:38;101408.0810546875;;;4.98;54.58
44531;BME280;30240;47.418;0.700;2023-02-28T09:45:08;101404.10766601562;;;5.22;54.57
44531;BME280;30240;47.418;0.700;2023-02-28T09:47:31;101407.58056640625;;;6.55;50.75
44531;BME280;30240;47.418;0.700;2023-02-28T09:49:54;101405.58471679688;;;5.99;51.99
44531;BME280;30240;47.418;0.700;2023-02-28T09:52:21;101406.86645507812;;;6.65;50.45
44531;BME280;30240;47.418;0.700;2023-02-28T09:54:44;101406.86645507812;;;6.65;50.45
44531;BME280;30240;47.418;0.700;2023-02-28T09:57:13;101407.14111328125;;;6.36;50.75
44531;BME280;30240;47.418;0.700;2023-02-28T09:59:39;101401.9287109375;;;5.99;50.05
44531;BME280;30240;47.418;0.700;2023-02-28T10:02:04;101403.42407226562;;;5.83;51.73
44531;BME280;30240;47.418;0.700;2023-02-28T10:04:38;101396.923828125;;;6.02;51.18
44531;BME280;30240;47.418;0.700;2023-02-28T10:06:50;101396.923828125;;;6.02;51.18
44531;BME280;30240;47.418;0.700;2023-02-28T10:09:17;101404.931640625;;;6.43;50.06
44531;BME280;30240;47.418;0.700;2023-02-28T10:11:39;101408.3740234375;;;6.18;49.98
44531;BME280;30240;47.418;0.700;2023-02-28T10:14:06;101403.65600585938;;;6.23;49.96
44531;BME280;30240;47.418;0.700;2023-02-28T10:16:31;101393.06030273438;;;6.19;50.06
44531;BME280;30240;47.418;0.700;2023-02-28T10:18:56;101393.06030273438;;;6.19;50.06
44531;BME280;30240;47.418;0.700;2023-02-28T10:21:21;101401.53198242188;;;7.3;48.03
44531;BME280;30240;47.418;0.700;2023-02-28T10:23:44;101393.15795898438;;;6.84;46.85
44531;BME280;30240;47.418;0.700;2023-02-28T10:26:12;101391.845703125;;;7.09;46.29
44531;BME280;30240;47.418;0.700;2023-02-28T10:28:34;101401.14135742188;;;7.34;46.16
44531;BME280;30240;47.418;0.700;2023-02-28T10:30:59;101401.14135742188;;;7.34;46.16
44531;BME280;30240;47.418;0.700;2023-02-28T10:33:25;101383.3740234375;;;6.99;45.78
44531;BME280;30240;47.418;0.700;2023-02-28T10:35:49;101386.09619140625;;;7.02;45.67
44531;BME280;30240;47.418;0.700;2023-02-28T10:38:16;101380.1025390625;;;6.19;46.37
44531;BME280;30240;47.418;0.700;2023-02-28T10:40:38;101378.91235351562;;;6.34;46.05
44531;BME280;30240;47.418;0.700;2023-02-28T10:43:05;101378.91235351562;;;6.34;46.05
44531;BME280;30240;47.418;0.700;2023-02-28T10:43:19;101378.91235351562;;;6.34;46.05
44531;BME280;30240;47.418;0.700;2023-02-28T10:45:30;101379.5654296875;;;6.67;45.94
44531;BME280;30240;47.418;0.700;2023-02-28T10:47:56;101375.1708984375;;;7.19;44.32
44531;BME280;30240;47.418;0.700;2023-02-28T10:50:28;101358.984375;;;7.02;44.63
44531;BME280;30240;47.418;0.700;2023-02-28T10:52:44;101362.33520507812;;;6.74;44.94